sensor_id;sensor_type;location;lat;lon;timestamp;P1;durP1;ratioP1;P2;durP2;ratioP2
54452;SDS011;40363;52.270;10.546;2023-04-06T00:02:26;5.20;;;2.60;;
54452;SDS011;40363;52.270;10.546;2023-04-06T00:04:52;6.43;;;2.95;;
54452;SDS011;40363;52.270;10.546;2023-04-06T00:07:20;4.75;;;2.55;;
54452;SDS011;40363;52.270;10.546;2023-04-06T00:09:47;5.43;;;2.72;;
54452;SDS011;40363;52.270;10.546;2023-04-06T00:12:14;3.78;;;2.15;;
54452;SDS011;40363;52.270;10.546;2023-04-06T00:14:40;4.55;;;2.55;;
54452;SDS011;40363;52.270;10.546;2023-04-06T00:17:07;5.07;;;3.20;;
54452;SDS011;40363;52.270;10.546;2023-04-06T00:19:34;3.20;;;2.28;;
54452;SDS011;40363;52.270;10.546;2023-04-06T00:22:00;6.32;;;2.38;;
54452;SDS011;40363;52.270;10.546;2023-04-06T00:24:29;5.85;;;2.20;;
54452;SDS011;40363;52.270;10.546;2023-04-06T00:26:55;4.32;;;2.55;;
54452;SDS011;40363;52.270;10.546;2023-04-06T00:29:22;6.88;;;2.67;;
54452;SDS011;40363;52.270;10.546;2023-04-06T00:31:48;4.60;;;2.80;;
54452;SDS011;40363;52.270;10.546;2023-04-06T00:34:15;6.43;;;2.72;;
54452;SDS011;40363;52.270;10.546;2023-04-06T00:36:42;4.65;;;2.55;;
54452;SDS011;40363;52.270;10.546;2023-04-06T00:39:09;18.17;;;2.97;;
54452;SDS011;40363;52.270;10.546;2023-04-06T00:41:37;4.00;;;2.92;;
54452;SDS011;40363;52.270;10.546;2023-04-06T00:44:05;4.40;;;2.97;;
54452;SDS011;40363;52.270;10.546;2023-04-06T00:46:32;4.72;;;2.90;;
54452;SDS011;40363;52.270;10.546;2023-04-06T00:48:58;5.65;;;3.60;;
54452;SDS011;40363;52.270;10.546;2023-04-06T00:51:25;4.18;;;2.47;;
54452;SDS011;40363;52.270;10.546;2023-04-06T00:53:52;3.90;;;2.75;;
54452;SDS011;40363;52.270;10.546;2023-04-06T00:56:19;6.65;;;3.10;;
54452;SDS011;40363;52.270;10.546;2023-04-06T00:58:47;6.13;;;2.65;;
54452;SDS011;40363;52.270;10.546;2023-04-06T01:01:14;5.70;;;2.72;;
54452;SDS011;40363;52.270;10.546;2023-04-06T01:03:41;3.95;;;2.72;;
54452;SDS011;40363;52.270;10.546;2023-04-06T01:06:09;4.05;;;2.75;;
54452;SDS011;40363;52.270;10.546;2023-04-06T01:08:35;4.30;;;2.95;;
54452;SDS011;40363;52.270;10.546;2023-04-06T01:11:02;5.50;;;2.90;;
54452;SDS011;40363;52.270;10.546;2023-04-06T01:13:29;5.60;;;3.25;;
54452;SDS011;40363;52.270;10.546;2023-04-06T01:15:57;4.38;;;2.97;;
54452;SDS011;40363;52.270;10.546;2023-04-06T01:18:25;5.30;;;3.85;;
54452;SDS011;40363;52.270;10.546;2023-04-06T01:20:52;4.55;;;3.00;;
54452;SDS011;40363;52.270;10.546;2023-04-06T01:23:20;4.35;;;2.60;;
54452;SDS011;40363;52.270;10.546;2023-04-06T01:25:47;8.50;;;3.05;;
54452;SDS011;40363;52.270;10.546;2023-04-06T01:28:14;3.92;;;2.88;;
54452;SDS011;40363;52.270;10.546;2023-04-06T01:30:40;5.95;;;3.42;;
54452;SDS011;40363;52.270;10.546;2023-04-06T01:33:07;6.60;;;3.30;;
54452;SDS011;40363;52.270;10.546;2023-04-06T01:35:34;6.18;;;4.03;;
54452;SDS011;40363;52.270;10.546;2023-04-06T01:38:01;6.97;;;2.85;;
54452;SDS011;40363;52.270;10.546;2023-04-06T01:40:29;7.93;;;3.58;;
54452;SDS011;40363;52.270;10.546;2023-04-06T01:42:56;4.20;;;3.30;;
54452;SDS011;40363;52.270;10.546;2023-04-06T01:45:22;9.05;;;4.35;;
54452;SDS011;40363;52.270;10.546;2023-04-06T01:47:49;8.15;;;3.97;;
54452;SDS011;40363;52.270;10.546;2023-04-06T01:50:16;4.22;;;3.03;;
54452;SDS011;40363;52.270;10.546;2023-04-06T01:52:42;4.95;;;3.33;;
54452;SDS011;40363;52.270;10.546;2023-04-06T01:55:09;7.90;;;3.47;;
54452;SDS011;40363;52.270;10.546;2023-04-06T01:57:37;6.45;;;3.78;;
54452;SDS011;40363;52.270;10.546;2023-04-06T02:00:04;5.65;;;3.33;;
54452;SDS011;40363;52.270;10.546;2023-04-06T02:02:32;5.57;;;3.53;;
54452;SDS011;40363;52.270;10.546;2023-04-06T02:04:58;9.88;;;4.03;;
54452;SDS011;40363;52.270;10.546;2023-04-06T02:07:25;7.47;;;3.28;;
54452;SDS011;40363;52.270;10.546;2023-04-06T02:09:53;5.60;;;4.05;;
54452;SDS011;40363;52.270;10.546;2023-04-06T02:12:20;6.65;;;3.28;;
54452;SDS011;40363;52.270;10.546;2023-04-06T02:14:50;4.20;;;2.92;;
54452;SDS011;40363;52.270;10.546;2023-04-06T02:17:16;4.60;;;3.10;;
54452;SDS011;40363;52.270;10.546;2023-04-06T02:19:43;7.30;;;3.17;;
54452;SDS011;40363;52.270;10.546;2023-04-06T02:22:10;5.25;;;3.88;;
54452;SDS011;40363;52.270;10.546;2023-04-06T02:24:37;5.15;;;3.42;;
54452;SDS011;40363;52.270;10.546;2023-04-06T02:27:03;7.22;;;3.78;;
54452;SDS011;40363;52.270;10.546;2023-04-06T02:29:31;6.53;;;3.55;;
54452;SDS011;40363;52.270;10.546;2023-04-06T02:31:58;6.15;;;3.78;;
54452;SDS011;40363;52.270;10.546;2023-04-06T02:34:25;6.95;;;4.15;;
54452;SDS011;40363;52.270;10.546;2023-04-06T02:36:52;6.55;;;4.50;;
54452;SDS011;40363;52.270;10.546;2023-04-06T02:39:18;7.00;;;3.65;;
54452;SDS011;40363;52.270;10.546;2023-04-06T02:41:45;12.00;;;4.35;;
54452;SDS011;40363;52.270;10.546;2023-04-06T02:44:12;6.85;;;3.70;;
54452;SDS011;40363;52.270;10.546;2023-04-06T02:46:38;5.15;;;3.65;;
54452;SDS011;40363;52.270;10.546;2023-04-06T02:49:06;6.90;;;4.15;;
54452;SDS011;40363;52.270;10.546;2023-04-06T02:51:33;6.57;;;3.55;;
54452;SDS011;40363;52.270;10.546;2023-04-06T02:54:00;6.38;;;3.83;;
54452;SDS011;40363;52.270;10.546;2023-04-06T02:56:26;7.55;;;3.97;;
54452;SDS011;40363;52.270;10.546;2023-04-06T02:58:53;11.75;;;4.13;;
54452;SDS011;40363;52.270;10.546;2023-04-06T03:01:20;5.95;;;3.58;;
54452;SDS011;40363;52.270;10.546;2023-04-06T03:03:46;6.32;;;3.10;;
54452;SDS011;40363;52.270;10.546;2023-04-06T03:06:14;7.07;;;4.10;;
54452;SDS011;40363;52.270;10.546;2023-04-06T03:08:41;9.68;;;4.78;;
54452;SDS011;40363;52.270;10.546;2023-04-06T03:11:07;7.07;;;3.92;;
54452;SDS011;40363;52.270;10.546;2023-04-06T03:13:35;5.75;;;3.67;;
54452;SDS011;40363;52.270;10.546;2023-04-06T03:16:04;8.57;;;4.55;;
54452;SDS011;40363;52.270;10.546;2023-04-06T03:18:31;7.15;;;4.72;;
54452;SDS011;40363;52.270;10.546;2023-04-06T03:20:58;9.10;;;5.03;;
54452;SDS011;40363;52.270;10.546;2023-04-06T03:23:26;5.45;;;3.50;;
54452;SDS011;40363;52.270;10.546;2023-04-06T03:25:53;10.45;;;4.30;;
54452;SDS011;40363;52.270;10.546;2023-04-06T03:28:20;6.90;;;3.35;;
54452;SDS011;40363;52.270;10.546;2023-04-06T03:30:46;4.78;;;3.17;;
54452;SDS011;40363;52.270;10.546;2023-04-06T03:33:13;5.35;;;2.95;;
54452;SDS011;40363;52.270;10.546;2023-04-06T03:35:39;8.85;;;3.22;;
54452;SDS011;40363;52.270;10.546;2023-04-06T03:38:06;5.45;;;3.70;;
54452;SDS011;40363;52.270;10.546;2023-04-06T03:40:34;9.77;;;4.13;;
54452;SDS011;40363;52.270;10.546;2023-04-06T03:43:01;6.82;;;4.57;;
54452;SDS011;40363;52.270;10.546;2023-04-06T03:45:27;6.65;;;4.40;;
54452;SDS011;40363;52.270;10.546;2023-04-06T03:47:54;8.85;;;3.75;;
54452;SDS011;40363;52.270;10.546;2023-04-06T03:50:21;7.60;;;4.10;;
54452;SDS011;40363;52.270;10.546;2023-04-06T03:52:47;4.80;;;3.55;;
54452;SDS011;40363;52.270;10.546;2023-04-06T03:55:14;9.43;;;4.63;;
54452;SDS011;40363;52.270;10.546;2023-04-06T03:57:42;7.22;;;4.82;;
54452;SDS011;40363;52.270;10.546;2023-04-06T04:00:09;9.20;;;5.30;;
54452;SDS011;40363;52.270;10.546;2023-04-06T04:02:37;9.10;;;4.20;;
54452;SDS011;40363;52.270;10.546;2023-04-06T04:05:04;4.95;;;3.63;;
54452;SDS011;40363;52.270;10.546;2023-04-06T04:07:31;4.78;;;3.47;;
54452;SDS011;40363;52.270;10.546;2023-04-06T04:09:57;6.30;;;3.88;;
54452;SDS011;40363;52.270;10.546;2023-04-06T04:12:24;6.28;;;4.47;;
54452;SDS011;40363;52.270;10.546;2023-04-06T04:14:52;6.97;;;4.05;;
54452;SDS011;40363;52.270;10.546;2023-04-06T04:17:19;8.68;;;4.20;;
54452;SDS011;40363;52.270;10.546;2023-04-06T04:19:46;7.82;;;4.32;;
54452;SDS011;40363;52.270;10.546;2023-04-06T04:22:12;9.80;;;4.32;;
54452;SDS011;40363;52.270;10.546;2023-04-06T04:24:39;6.85;;;4.32;;
54452;SDS011;40363;52.270;10.546;2023-04-06T04:27:06;8.07;;;4.30;;
54452;SDS011;40363;52.270;10.546;2023-04-06T04:29:32;7.15;;;3.88;;
54452;SDS011;40363;52.270;10.546;2023-04-06T04:32:00;5.70;;;4.43;;
54452;SDS011;40363;52.270;10.546;2023-04-06T04:34:28;6.53;;;4.07;;
54452;SDS011;40363;52.270;10.546;2023-04-06T04:36:54;5.07;;;4.57;;
54452;SDS011;40363;52.270;10.546;2023-04-06T04:39:21;9.52;;;4.63;;
54452;SDS011;40363;52.270;10.546;2023-04-06T04:41:48;8.38;;;5.50;;
54452;SDS011;40363;52.270;10.546;2023-04-06T04:44:14;10.55;;;6.18;;
54452;SDS011;40363;52.270;10.546;2023-04-06T04:46:41;8.95;;;5.55;;
54452;SDS011;40363;52.270;10.546;2023-04-06T04:49:09;13.65;;;6.55;;
54452;SDS011;40363;52.270;10.546;2023-04-06T04:51:35;10.23;;;5.53;;
54452;SDS011;40363;52.270;10.546;2023-04-06T04:54:02;9.30;;;5.47;;
54452;SDS011;40363;52.270;10.546;2023-04-06T04:56:29;9.55;;;5.18;;
54452;SDS011;40363;52.270;10.546;2023-04-06T04:58:55;8.55;;;5.07;;
54452;SDS011;40363;52.270;10.546;2023-04-06T05:01:22;11.45;;;6.10;;
54452;SDS011;40363;52.270;10.546;2023-04-06T05:03:49;8.27;;;4.85;;
54452;SDS011;40363;52.270;10.546;2023-04-06T05:06:17;9.73;;;6.05;;
54452;SDS011;40363;52.270;10.546;2023-04-06T05:08:45;8.38;;;5.32;;
54452;SDS011;40363;52.270;10.546;2023-04-06T05:11:12;8.77;;;6.10;;
54452;SDS011;40363;52.270;10.546;2023-04-06T05:13:38;8.10;;;6.13;;
54452;SDS011;40363;52.270;10.546;2023-04-06T05:16:05;8.30;;;5.40;;
54452;SDS011;40363;52.270;10.546;2023-04-06T05:18:32;11.07;;;5.43;;
54452;SDS011;40363;52.270;10.546;2023-04-06T05:20:59;10.10;;;5.40;;
54452;SDS011;40363;52.270;10.546;2023-04-06T05:23:27;10.35;;;5.55;;
54452;SDS011;40363;52.270;10.546;2023-04-06T05:25:53;10.38;;;5.53;;
54452;SDS011;40363;52.270;10.546;2023-04-06T05:28:20;12.70;;;5.72;;
54452;SDS011;40363;52.270;10.546;2023-04-06T05:30:47;9.10;;;5.15;;
54452;SDS011;40363;52.270;10.546;2023-04-06T05:33:13;8.23;;;5.30;;
54452;SDS011;40363;52.270;10.546;2023-04-06T05:35:40;18.55;;;7.00;;
54452;SDS011;40363;52.270;10.546;2023-04-06T05:38:07;13.20;;;6.18;;
54452;SDS011;40363;52.270;10.546;2023-04-06T05:40:36;9.38;;;5.22;;
54452;SDS011;40363;52.270;10.546;2023-04-06T05:43:05;9.70;;;5.72;;
54452;SDS011;40363;52.270;10.546;2023-04-06T05:45:32;8.60;;;6.00;;
54452;SDS011;40363;52.270;10.546;2023-04-06T05:48:00;13.48;;;6.05;;
54452;SDS011;40363;52.270;10.546;2023-04-06T05:50:26;6.93;;;5.20;;
54452;SDS011;40363;52.270;10.546;2023-04-06T05:52:53;12.00;;;6.68;;
54452;SDS011;40363;52.270;10.546;2023-04-06T05:55:20;9.38;;;5.25;;
54452;SDS011;40363;52.270;10.546;2023-04-06T05:57:48;9.48;;;6.20;;
54452;SDS011;40363;52.270;10.546;2023-04-06T06:00:15;10.25;;;6.80;;
54452;SDS011;40363;52.270;10.546;2023-04-06T06:02:41;10.30;;;5.78;;
54452;SDS011;40363;52.270;10.546;2023-04-06T06:05:08;13.52;;;7.40;;
54452;SDS011;40363;52.270;10.546;2023-04-06T06:07:35;10.00;;;5.85;;
54452;SDS011;40363;52.270;10.546;2023-04-06T06:10:02;14.73;;;7.20;;
54452;SDS011;40363;52.270;10.546;2023-04-06T06:12:29;11.25;;;6.30;;
54452;SDS011;40363;52.270;10.546;2023-04-06T06:14:57;9.20;;;5.53;;
54452;SDS011;40363;52.270;10.546;2023-04-06T06:17:24;9.13;;;5.47;;
54452;SDS011;40363;52.270;10.546;2023-04-06T06:19:51;11.02;;;5.78;;
54452;SDS011;40363;52.270;10.546;2023-04-06T06:22:17;8.77;;;6.30;;
54452;SDS011;40363;52.270;10.546;2023-04-06T06:24:44;14.10;;;5.60;;
54452;SDS011;40363;52.270;10.546;2023-04-06T06:27:11;18.50;;;6.80;;
54452;SDS011;40363;52.270;10.546;2023-04-06T06:29:37;9.02;;;5.90;;
54452;SDS011;40363;52.270;10.546;2023-04-06T06:32:06;8.02;;;5.18;;
54452;SDS011;40363;52.270;10.546;2023-04-06T06:34:34;11.00;;;6.28;;
54452;SDS011;40363;52.270;10.546;2023-04-06T06:37:00;8.05;;;5.43;;
54452;SDS011;40363;52.270;10.546;2023-04-06T06:39:28;10.00;;;6.03;;
54452;SDS011;40363;52.270;10.546;2023-04-06T06:41:54;8.15;;;5.30;;
54452;SDS011;40363;52.270;10.546;2023-04-06T06:44:21;10.35;;;5.22;;
54452;SDS011;40363;52.270;10.546;2023-04-06T06:46:48;6.75;;;5.30;;
54452;SDS011;40363;52.270;10.546;2023-04-06T06:49:16;12.15;;;5.63;;
54452;SDS011;40363;52.270;10.546;2023-04-06T06:51:43;9.73;;;5.28;;
54452;SDS011;40363;52.270;10.546;2023-04-06T06:54:10;5.85;;;4.78;;
54452;SDS011;40363;52.270;10.546;2023-04-06T06:56:37;9.52;;;5.97;;
54452;SDS011;40363;52.270;10.546;2023-04-06T06:59:04;9.13;;;6.05;;
54452;SDS011;40363;52.270;10.546;2023-04-06T07:01:31;6.35;;;5.22;;
54452;SDS011;40363;52.270;10.546;2023-04-06T07:03:58;8.65;;;5.35;;
54452;SDS011;40363;52.270;10.546;2023-04-06T07:06:26;7.28;;;4.97;;
54452;SDS011;40363;52.270;10.546;2023-04-06T07:08:53;9.02;;;5.35;;
54452;SDS011;40363;52.270;10.546;2023-04-06T07:11:20;7.07;;;4.93;;
54452;SDS011;40363;52.270;10.546;2023-04-06T07:13:47;7.82;;;5.47;;
54452;SDS011;40363;52.270;10.546;2023-04-06T07:16:13;5.80;;;4.80;;
54452;SDS011;40363;52.270;10.546;2023-04-06T07:18:40;5.80;;;4.70;;
54452;SDS011;40363;52.270;10.546;2023-04-06T07:21:07;8.32;;;5.05;;
54452;SDS011;40363;52.270;10.546;2023-04-06T07:23:35;9.40;;;5.22;;
54452;SDS011;40363;52.270;10.546;2023-04-06T07:26:01;5.80;;;4.95;;
54452;SDS011;40363;52.270;10.546;2023-04-06T07:28:28;6.40;;;5.57;;
54452;SDS011;40363;52.270;10.546;2023-04-06T07:30:55;9.43;;;4.82;;
54452;SDS011;40363;52.270;10.546;2023-04-06T07:33:21;9.00;;;5.72;;
54452;SDS011;40363;52.270;10.546;2023-04-06T07:35:48;7.70;;;5.82;;
54452;SDS011;40363;52.270;10.546;2023-04-06T07:38:15;10.38;;;5.50;;
54452;SDS011;40363;52.270;10.546;2023-04-06T07:40:43;7.18;;;5.00;;
54452;SDS011;40363;52.270;10.546;2023-04-06T07:43:10;9.52;;;5.18;;
54452;SDS011;40363;52.270;10.546;2023-04-06T07:45:36;6.35;;;5.15;;
54452;SDS011;40363;52.270;10.546;2023-04-06T07:48:03;6.70;;;4.85;;
54452;SDS011;40363;52.270;10.546;2023-04-06T07:50:30;9.27;;;6.32;;
54452;SDS011;40363;52.270;10.546;2023-04-06T07:52:57;9.35;;;5.40;;
54452;SDS011;40363;52.270;10.546;2023-04-06T07:55:23;6.63;;;4.97;;
54452;SDS011;40363;52.270;10.546;2023-04-06T07:57:51;7.38;;;5.05;;
54452;SDS011;40363;52.270;10.546;2023-04-06T08:00:18;8.73;;;5.43;;
54452;SDS011;40363;52.270;10.546;2023-04-06T08:02:45;6.07;;;5.05;;
54452;SDS011;40363;52.270;10.546;2023-04-06T08:05:12;6.43;;;4.97;;
54452;SDS011;40363;52.270;10.546;2023-04-06T08:07:39;6.97;;;5.55;;
54452;SDS011;40363;52.270;10.546;2023-04-06T08:10:06;9.25;;;5.78;;
54452;SDS011;40363;52.270;10.546;2023-04-06T08:12:34;7.57;;;5.38;;
54452;SDS011;40363;52.270;10.546;2023-04-06T08:15:02;8.45;;;6.07;;
54452;SDS011;40363;52.270;10.546;2023-04-06T08:17:29;7.18;;;5.85;;
54452;SDS011;40363;52.270;10.546;2023-04-06T08:19:58;9.05;;;5.35;;
54452;SDS011;40363;52.270;10.546;2023-04-06T08:22:25;7.00;;;5.13;;
54452;SDS011;40363;52.270;10.546;2023-04-06T08:24:52;7.13;;;5.60;;
54452;SDS011;40363;52.270;10.546;2023-04-06T08:27:19;7.53;;;4.95;;
54452;SDS011;40363;52.270;10.546;2023-04-06T08:29:45;6.78;;;5.22;;
54452;SDS011;40363;52.270;10.546;2023-04-06T08:32:14;8.38;;;5.25;;
54452;SDS011;40363;52.270;10.546;2023-04-06T08:34:41;6.93;;;4.75;;
54452;SDS011;40363;52.270;10.546;2023-04-06T08:37:08;7.68;;;4.90;;
54452;SDS011;40363;52.270;10.546;2023-04-06T08:39:35;6.45;;;5.10;;
54452;SDS011;40363;52.270;10.546;2023-04-06T08:42:01;7.38;;;5.40;;
54452;SDS011;40363;52.270;10.546;2023-04-06T08:44:28;7.07;;;4.95;;
54452;SDS011;40363;52.270;10.546;2023-04-06T08:46:55;6.18;;;5.40;;
54452;SDS011;40363;52.270;10.546;2023-04-06T08:49:24;7.45;;;5.93;;
54452;SDS011;40363;52.270;10.546;2023-04-06T08:51:51;6.82;;;4.75;;
54452;SDS011;40363;52.270;10.546;2023-04-06T08:54:18;5.80;;;4.43;;
54452;SDS011;40363;52.270;10.546;2023-04-06T08:56:45;8.93;;;4.82;;
54452;SDS011;40363;52.270;10.546;2023-04-06T08:59:13;7.72;;;4.95;;
54452;SDS011;40363;52.270;10.546;2023-04-06T09:01:40;7.00;;;4.95;;
54452;SDS011;40363;52.270;10.546;2023-04-06T09:04:08;9.85;;;6.53;;
54452;SDS011;40363;52.270;10.546;2023-04-06T09:06:38;7.93;;;5.28;;
54452;SDS011;40363;52.270;10.546;2023-04-06T09:09:05;11.13;;;5.28;;
54452;SDS011;40363;52.270;10.546;2023-04-06T09:11:42;10.15;;;5.25;;
54452;SDS011;40363;52.270;10.546;2023-04-06T09:14:10;12.35;;;5.43;;
54452;SDS011;40363;52.270;10.546;2023-04-06T09:16:40;8.52;;;5.15;;
54452;SDS011;40363;52.270;10.546;2023-04-06T09:19:07;9.30;;;5.15;;
54452;SDS011;40363;52.270;10.546;2023-04-06T09:21:34;7.18;;;4.80;;
54452;SDS011;40363;52.270;10.546;2023-04-06T09:24:03;9.02;;;5.90;;
54452;SDS011;40363;52.270;10.546;2023-04-06T09:26:31;10.20;;;5.68;;
54452;SDS011;40363;52.270;10.546;2023-04-06T09:28:59;8.68;;;5.63;;
54452;SDS011;40363;52.270;10.546;2023-04-06T09:31:26;8.07;;;5.28;;
54452;SDS011;40363;52.270;10.546;2023-04-06T09:33:54;10.27;;;6.03;;
54452;SDS011;40363;52.270;10.546;2023-04-06T09:36:29;9.32;;;5.57;;
54452;SDS011;40363;52.270;10.546;2023-04-06T09:38:56;10.02;;;5.63;;
54452;SDS011;40363;52.270;10.546;2023-04-06T09:41:26;6.93;;;4.75;;
54452;SDS011;40363;52.270;10.546;2023-04-06T09:44:01;8.70;;;5.18;;
54452;SDS011;40363;52.270;10.546;2023-04-06T09:46:31;7.20;;;5.13;;
54452;SDS011;40363;52.270;10.546;2023-04-06T09:48:59;8.75;;;5.28;;
54452;SDS011;40363;52.270;10.546;2023-04-06T09:51:26;10.88;;;5.78;;
54452;SDS011;40363;52.270;10.546;2023-04-06T09:53:57;9.07;;;5.13;;
54452;SDS011;40363;52.270;10.546;2023-04-06T09:56:28;7.20;;;4.70;;
54452;SDS011;40363;52.270;10.546;2023-04-06T09:59:01;9.13;;;5.97;;
54452;SDS011;40363;52.270;10.546;2023-04-06T10:01:32;8.52;;;5.28;;
54452;SDS011;40363;52.270;10.546;2023-04-06T10:04:05;8.35;;;5.82;;
54452;SDS011;40363;52.270;10.546;2023-04-06T10:06:39;7.70;;;5.80;;
54452;SDS011;40363;52.270;10.546;2023-04-06T10:09:07;7.50;;;4.95;;
54452;SDS011;40363;52.270;10.546;2023-04-06T10:11:35;7.82;;;4.85;;
54452;SDS011;40363;52.270;10.546;2023-04-06T10:14:03;10.73;;;5.65;;
54452;SDS011;40363;52.270;10.546;2023-04-06T10:16:30;8.88;;;5.40;;
54452;SDS011;40363;52.270;10.546;2023-04-06T10:18:58;10.55;;;5.25;;
54452;SDS011;40363;52.270;10.546;2023-04-06T10:21:31;9.73;;;4.85;;
54452;SDS011;40363;52.270;10.546;2023-04-06T10:24:00;9.05;;;5.53;;
54452;SDS011;40363;52.270;10.546;2023-04-06T10:26:29;8.85;;;5.45;;
54452;SDS011;40363;52.270;10.546;2023-04-06T10:29:02;9.20;;;5.60;;
54452;SDS011;40363;52.270;10.546;2023-04-06T10:31:29;9.05;;;5.40;;
54452;SDS011;40363;52.270;10.546;2023-04-06T10:33:56;9.70;;;5.93;;
54452;SDS011;40363;52.270;10.546;2023-04-06T10:36:24;6.40;;;4.43;;
54452;SDS011;40363;52.270;10.546;2023-04-06T10:38:56;7.50;;;4.82;;
54452;SDS011;40363;52.270;10.546;2023-04-06T10:41:23;7.72;;;5.15;;
54452;SDS011;40363;52.270;10.546;2023-04-06T10:43:59;8.05;;;5.15;;
54452;SDS011;40363;52.270;10.546;2023-04-06T10:46:26;8.25;;;5.55;;
54452;SDS011;40363;52.270;10.546;2023-04-06T10:48:54;9.90;;;6.10;;
54452;SDS011;40363;52.270;10.546;2023-04-06T10:51:24;9.65;;;5.60;;
54452;SDS011;40363;52.270;10.546;2023-04-06T10:53:53;10.30;;;7.03;;
54452;SDS011;40363;52.270;10.546;2023-04-06T10:56:21;8.57;;;5.57;;
54452;SDS011;40363;52.270;10.546;2023-04-06T10:58:51;10.70;;;5.70;;
54452;SDS011;40363;52.270;10.546;2023-04-06T11:01:22;10.05;;;5.93;;
54452;SDS011;40363;52.270;10.546;2023-04-06T11:03:53;10.82;;;6.15;;
54452;SDS011;40363;52.270;10.546;2023-04-06T11:06:24;10.75;;;5.43;;
54452;SDS011;40363;52.270;10.546;2023-04-06T11:08:52;8.30;;;5.40;;
54452;SDS011;40363;52.270;10.546;2023-04-06T11:11:20;10.55;;;6.50;;
54452;SDS011;40363;52.270;10.546;2023-04-06T11:13:49;9.98;;;6.57;;
54452;SDS011;40363;52.270;10.546;2023-04-06T11:16:17;11.23;;;6.10;;
54452;SDS011;40363;52.270;10.546;2023-04-06T11:18:50;9.77;;;5.55;;
54452;SDS011;40363;52.270;10.546;2023-04-06T11:21:17;8.30;;;5.75;;
54452;SDS011;40363;52.270;10.546;2023-04-06T11:23:45;6.88;;;5.53;;
54452;SDS011;40363;52.270;10.546;2023-04-06T11:26:11;8.43;;;5.40;;
54452;SDS011;40363;52.270;10.546;2023-04-06T11:28:39;12.43;;;6.43;;
54452;SDS011;40363;52.270;10.546;2023-04-06T11:31:06;7.97;;;5.93;;
54452;SDS011;40363;52.270;10.546;2023-04-06T11:33:36;10.05;;;5.65;;
54452;SDS011;40363;52.270;10.546;2023-04-06T11:36:05;9.77;;;5.55;;
54452;SDS011;40363;52.270;10.546;2023-04-06T11:38:33;8.63;;;5.43;;
54452;SDS011;40363;52.270;10.546;2023-04-06T11:41:00;11.13;;;5.63;;
54452;SDS011;40363;52.270;10.546;2023-04-06T11:43:28;8.25;;;5.93;;
54452;SDS011;40363;52.270;10.546;2023-04-06T11:45:59;9.68;;;6.28;;
54452;SDS011;40363;52.270;10.546;2023-04-06T11:48:27;11.43;;;6.40;;
54452;SDS011;40363;52.270;10.546;2023-04-06T11:50:55;9.05;;;5.38;;
54452;SDS011;40363;52.270;10.546;2023-04-06T11:53:24;9.80;;;6.38;;
54452;SDS011;40363;52.270;10.546;2023-04-06T11:55:51;8.75;;;5.00;;
54452;SDS011;40363;52.270;10.546;2023-04-06T11:58:18;9.48;;;5.88;;
54452;SDS011;40363;52.270;10.546;2023-04-06T12:00:44;11.55;;;6.40;;
54452;SDS011;40363;52.270;10.546;2023-04-06T12:03:11;9.30;;;6.55;;
54452;SDS011;40363;52.270;10.546;2023-04-06T12:05:38;8.98;;;5.97;;
54452;SDS011;40363;52.270;10.546;2023-04-06T12:08:05;10.27;;;7.07;;
54452;SDS011;40363;52.270;10.546;2023-04-06T12:10:33;7.88;;;5.57;;
54452;SDS011;40363;52.270;10.546;2023-04-06T12:13:00;11.40;;;6.22;;
54452;SDS011;40363;52.270;10.546;2023-04-06T12:15:26;8.38;;;5.95;;
54452;SDS011;40363;52.270;10.546;2023-04-06T12:17:53;8.07;;;5.20;;
54452;SDS011;40363;52.270;10.546;2023-04-06T12:20:20;7.47;;;5.68;;
54452;SDS011;40363;52.270;10.546;2023-04-06T12:22:46;10.85;;;5.03;;
54452;SDS011;40363;52.270;10.546;2023-04-06T12:25:13;7.28;;;5.15;;
54452;SDS011;40363;52.270;10.546;2023-04-06T12:27:41;9.00;;;5.78;;
54452;SDS011;40363;52.270;10.546;2023-04-06T12:30:08;7.13;;;5.50;;
54452;SDS011;40363;52.270;10.546;2023-04-06T12:32:35;7.82;;;5.03;;
54452;SDS011;40363;52.270;10.546;2023-04-06T12:35:02;8.13;;;5.10;;
54452;SDS011;40363;52.270;10.546;2023-04-06T12:37:28;10.55;;;5.63;;
54452;SDS011;40363;52.270;10.546;2023-04-06T12:39:55;12.23;;;5.95;;
54452;SDS011;40363;52.270;10.546;2023-04-06T12:42:22;7.88;;;5.13;;
54452;SDS011;40363;52.270;10.546;2023-04-06T12:44:50;10.35;;;5.57;;
54452;SDS011;40363;52.270;10.546;2023-04-06T12:47:16;5.90;;;4.82;;
54452;SDS011;40363;52.270;10.546;2023-04-06T12:49:43;9.85;;;5.03;;
54452;SDS011;40363;52.270;10.546;2023-04-06T12:52:10;8.07;;;5.22;;
54452;SDS011;40363;52.270;10.546;2023-04-06T12:54:37;9.25;;;4.85;;
54452;SDS011;40363;52.270;10.546;2023-04-06T12:57:03;10.13;;;5.15;;
54452;SDS011;40363;52.270;10.546;2023-04-06T12:59:30;9.57;;;5.70;;
54452;SDS011;40363;52.270;10.546;2023-04-06T13:02:01;7.43;;;4.70;;
54452;SDS011;40363;52.270;10.546;2023-04-06T13:04:29;5.68;;;4.10;;
54452;SDS011;40363;52.270;10.546;2023-04-06T13:06:56;6.07;;;4.30;;
54452;SDS011;40363;52.270;10.546;2023-04-06T13:09:23;7.55;;;4.57;;
54452;SDS011;40363;52.270;10.546;2023-04-06T13:11:49;5.88;;;4.45;;
54452;SDS011;40363;52.270;10.546;2023-04-06T13:14:16;6.07;;;4.00;;
54452;SDS011;40363;52.270;10.546;2023-04-06T13:16:43;6.63;;;4.32;;
54452;SDS011;40363;52.270;10.546;2023-04-06T13:19:11;5.72;;;4.28;;
54452;SDS011;40363;52.270;10.546;2023-04-06T13:21:38;6.85;;;3.67;;
54452;SDS011;40363;52.270;10.546;2023-04-06T13:24:05;8.25;;;4.78;;
54452;SDS011;40363;52.270;10.546;2023-04-06T13:26:32;10.07;;;5.07;;
54452;SDS011;40363;52.270;10.546;2023-04-06T13:28:59;7.70;;;4.43;;
54452;SDS011;40363;52.270;10.546;2023-04-06T13:31:25;7.75;;;4.45;;
54452;SDS011;40363;52.270;10.546;2023-04-06T13:33:52;7.88;;;4.50;;
54452;SDS011;40363;52.270;10.546;2023-04-06T13:36:20;7.72;;;4.40;;
54452;SDS011;40363;52.270;10.546;2023-04-06T13:38:47;6.45;;;4.50;;
54452;SDS011;40363;52.270;10.546;2023-04-06T13:41:17;7.65;;;5.35;;
54452;SDS011;40363;52.270;10.546;2023-04-06T13:43:45;7.65;;;4.10;;
54452;SDS011;40363;52.270;10.546;2023-04-06T13:46:12;6.88;;;5.30;;
54452;SDS011;40363;52.270;10.546;2023-04-06T13:48:39;6.93;;;5.00;;
54452;SDS011;40363;52.270;10.546;2023-04-06T13:51:09;8.52;;;4.78;;
54452;SDS011;40363;52.270;10.546;2023-04-06T13:53:38;6.53;;;3.80;;
54452;SDS011;40363;52.270;10.546;2023-04-06T13:56:05;7.43;;;4.25;;
54452;SDS011;40363;52.270;10.546;2023-04-06T13:58:32;5.53;;;3.80;;
54452;SDS011;40363;52.270;10.546;2023-04-06T14:01:04;6.28;;;4.38;;
54452;SDS011;40363;52.270;10.546;2023-04-06T14:03:32;6.22;;;4.47;;
54452;SDS011;40363;52.270;10.546;2023-04-06T14:05:59;8.48;;;4.90;;
54452;SDS011;40363;52.270;10.546;2023-04-06T14:08:25;7.05;;;4.18;;
54452;SDS011;40363;52.270;10.546;2023-04-06T14:10:53;8.13;;;4.78;;
54452;SDS011;40363;52.270;10.546;2023-04-06T14:13:20;6.65;;;4.50;;
54452;SDS011;40363;52.270;10.546;2023-04-06T14:15:52;7.40;;;4.72;;
54452;SDS011;40363;52.270;10.546;2023-04-06T14:18:19;6.68;;;4.15;;
54452;SDS011;40363;52.270;10.546;2023-04-06T14:20:46;10.73;;;4.30;;
54452;SDS011;40363;52.270;10.546;2023-04-06T14:23:19;5.13;;;4.10;;
54452;SDS011;40363;52.270;10.546;2023-04-06T14:25:46;6.57;;;4.20;;
54452;SDS011;40363;52.270;10.546;2023-04-06T14:28:14;7.57;;;4.55;;
54452;SDS011;40363;52.270;10.546;2023-04-06T14:30:41;8.48;;;4.40;;
54452;SDS011;40363;52.270;10.546;2023-04-06T14:33:07;5.82;;;4.22;;
54452;SDS011;40363;52.270;10.546;2023-04-06T14:35:37;5.53;;;3.85;;